sensor_id;sensor_type;location;lat;lon;timestamp;P1;durP1;ratioP1;P2;durP2;ratioP2
32445;SDS011;18899;50.748;7.102;2023-02-15T00:01:57;51.17;;;20.17;;
32445;SDS011;18899;50.748;7.102;2023-02-15T00:04:24;55.13;;;20.58;;
32445;SDS011;18899;50.748;7.102;2023-02-15T00:07:10;42.88;;;19.50;;
32445;SDS011;18899;50.748;7.102;2023-02-15T00:09:36;48.15;;;19.48;;
32445;SDS011;18899;50.748;7.102;2023-02-15T00:12:01;44.70;;;20.13;;
32445;SDS011;18899;50.748;7.102;2023-02-15T00:14:27;47.50;;;20.67;;
32445;SDS011;18899;50.748;7.102;2023-02-15T00:16:52;48.70;;;20.50;;
32445;SDS011;18899;50.748;7.102;2023-02-15T00:19:20;51.38;;;20.55;;
32445;SDS011;18899;50.748;7.102;2023-02-15T00:21:47;49.78;;;20.33;;
32445;SDS011;18899;50.748;7.102;2023-02-15T00:24:13;49.10;;;21.00;;
32445;SDS011;18899;50.748;7.102;2023-02-15T00:26:41;50.20;;;21.67;;
32445;SDS011;18899;50.748;7.102;2023-02-15T00:29:08;45.88;;;19.42;;
32445;SDS011;18899;50.748;7.102;2023-02-15T00:31:35;50.50;;;21.83;;
32445;SDS011;18899;50.748;7.102;2023-02-15T00:34:01;56.92;;;20.83;;
32445;SDS011;18899;50.748;7.102;2023-02-15T00:36:31;32.33;;;14.30;;
32445;SDS011;18899;50.748;7.102;2023-02-15T00:38:57;52.28;;;21.77;;
32445;SDS011;18899;50.748;7.102;2023-02-15T00:41:23;52.28;;;21.27;;
32445;SDS011;18899;50.748;7.102;2023-02-15T00:43:48;52.38;;;20.52;;
32445;SDS011;18899;50.748;7.102;2023-02-15T00:46:14;53.45;;;21.08;;
32445;SDS011;18899;50.748;7.102;2023-02-15T00:48:39;56.05;;;22.55;;
32445;SDS011;18899;50.748;7.102;2023-02-15T00:51:05;52.88;;;20.92;;
32445;SDS011;18899;50.748;7.102;2023-02-15T00:53:30;46.72;;;20.15;;
32445;SDS011;18899;50.748;7.102;2023-02-15T00:55:56;50.90;;;20.98;;
32445;SDS011;18899;50.748;7.102;2023-02-15T00:58:22;50.88;;;21.48;;
32445;SDS011;18899;50.748;7.102;2023-02-15T01:00:48;53.47;;;21.77;;
32445;SDS011;18899;50.748;7.102;2023-02-15T01:03:14;48.53;;;21.20;;
32445;SDS011;18899;50.748;7.102;2023-02-15T01:05:41;51.45;;;21.35;;
32445;SDS011;18899;50.748;7.102;2023-02-15T01:08:07;56.72;;;22.25;;
32445;SDS011;18899;50.748;7.102;2023-02-15T01:10:33;54.20;;;21.80;;
32445;SDS011;18899;50.748;7.102;2023-02-15T01:12:59;52.97;;;21.55;;
32445;SDS011;18899;50.748;7.102;2023-02-15T01:15:25;55.40;;;21.67;;
32445;SDS011;18899;50.748;7.102;2023-02-15T01:17:51;52.17;;;22.55;;
32445;SDS011;18899;50.748;7.102;2023-02-15T01:20:20;52.78;;;21.45;;
32445;SDS011;18899;50.748;7.102;2023-02-15T01:22:51;57.17;;;22.45;;
32445;SDS011;18899;50.748;7.102;2023-02-15T01:25:17;55.22;;;22.02;;
32445;SDS011;18899;50.748;7.102;2023-02-15T01:27:44;58.58;;;22.30;;
32445;SDS011;18899;50.748;7.102;2023-02-15T01:30:11;58.55;;;23.17;;
32445;SDS011;18899;50.748;7.102;2023-02-15T01:32:37;48.47;;;19.48;;
32445;SDS011;18899;50.748;7.102;2023-02-15T01:35:03;51.78;;;21.40;;
32445;SDS011;18899;50.748;7.102;2023-02-15T01:37:32;53.65;;;20.38;;
32445;SDS011;18899;50.748;7.102;2023-02-15T01:39:58;50.55;;;21.08;;
32445;SDS011;18899;50.748;7.102;2023-02-15T01:42:27;56.38;;;22.48;;
32445;SDS011;18899;50.748;7.102;2023-02-15T01:44:59;54.55;;;21.25;;
32445;SDS011;18899;50.748;7.102;2023-02-15T01:47:42;50.63;;;21.15;;
32445;SDS011;18899;50.748;7.102;2023-02-15T01:55:23;54.72;;;20.90;;
32445;SDS011;18899;50.748;7.102;2023-02-15T01:57:51;57.78;;;20.85;;
32445;SDS011;18899;50.748;7.102;2023-02-15T02:00:18;58.97;;;22.00;;
32445;SDS011;18899;50.748;7.102;2023-02-15T02:02:45;52.30;;;22.58;;
32445;SDS011;18899;50.748;7.102;2023-02-15T02:05:15;55.22;;;21.73;;
32445;SDS011;18899;50.748;7.102;2023-02-15T02:07:41;53.28;;;21.20;;
32445;SDS011;18899;50.748;7.102;2023-02-15T02:10:11;51.85;;;19.92;;
32445;SDS011;18899;50.748;7.102;2023-02-15T02:12:43;53.72;;;22.15;;
32445;SDS011;18899;50.748;7.102;2023-02-15T02:15:11;56.03;;;21.63;;
32445;SDS011;18899;50.748;7.102;2023-02-15T02:20:25;53.50;;;21.35;;
32445;SDS011;18899;50.748;7.102;2023-02-15T02:23:08;51.60;;;22.15;;
32445;SDS011;18899;50.748;7.102;2023-02-15T02:25:52;52.45;;;19.63;;
32445;SDS011;18899;50.748;7.102;2023-02-15T02:31:36;54.40;;;21.83;;
32445;SDS011;18899;50.748;7.102;2023-02-15T02:34:32;56.47;;;22.40;;
32445;SDS011;18899;50.748;7.102;2023-02-15T02:37:31;55.40;;;21.73;;
32445;SDS011;18899;50.748;7.102;2023-02-15T02:40:19;55.83;;;21.35;;
32445;SDS011;18899;50.748;7.102;2023-02-15T02:42:55;51.13;;;21.33;;
32445;SDS011;18899;50.748;7.102;2023-02-15T02:45:28;56.92;;;20.80;;
32445;SDS011;18899;50.748;7.102;2023-02-15T02:48:06;50.35;;;20.40;;
32445;SDS011;18899;50.748;7.102;2023-02-15T02:50:38;50.47;;;20.33;;
32445;SDS011;18899;50.748;7.102;2023-02-15T02:53:04;54.20;;;21.33;;
32445;SDS011;18899;50.748;7.102;2023-02-15T02:58:08;48.45;;;18.92;;
32445;SDS011;18899;50.748;7.102;2023-02-15T03:00:48;47.05;;;20.35;;
32445;SDS011;18899;50.748;7.102;2023-02-15T03:06:04;47.72;;;19.52;;
32445;SDS011;18899;50.748;7.102;2023-02-15T03:08:36;49.20;;;19.60;;
32445;SDS011;18899;50.748;7.102;2023-02-15T03:11:07;48.75;;;19.75;;
32445;SDS011;18899;50.748;7.102;2023-02-15T03:13:34;52.92;;;21.63;;
32445;SDS011;18899;50.748;7.102;2023-02-15T03:16:00;51.17;;;21.38;;
32445;SDS011;18899;50.748;7.102;2023-02-15T03:18:46;55.75;;;21.77;;
32445;SDS011;18899;50.748;7.102;2023-02-15T03:21:18;55.78;;;21.85;;
32445;SDS011;18899;50.748;7.102;2023-02-15T03:23:54;48.03;;;20.08;;
32445;SDS011;18899;50.748;7.102;2023-02-15T03:26:29;52.05;;;20.25;;
32445;SDS011;18899;50.748;7.102;2023-02-15T03:28:55;52.15;;;21.65;;
32445;SDS011;18899;50.748;7.102;2023-02-15T03:31:23;56.78;;;21.63;;
32445;SDS011;18899;50.748;7.102;2023-02-15T03:33:54;50.80;;;21.50;;
32445;SDS011;18899;50.748;7.102;2023-02-15T03:36:35;47.00;;;19.00;;
32445;SDS011;18899;50.748;7.102;2023-02-15T03:42:10;51.08;;;19.08;;
32445;SDS011;18899;50.748;7.102;2023-02-15T03:44:51;48.42;;;18.95;;
32445;SDS011;18899;50.748;7.102;2023-02-15T03:47:36;47.15;;;19.50;;
32445;SDS011;18899;50.748;7.102;2023-02-15T03:50:06;46.17;;;19.80;;
32445;SDS011;18899;50.748;7.102;2023-02-15T03:52:58;43.50;;;18.95;;
32445;SDS011;18899;50.748;7.102;2023-02-15T03:55:25;56.15;;;20.52;;
32445;SDS011;18899;50.748;7.102;2023-02-15T03:57:52;53.85;;;20.75;;
32445;SDS011;18899;50.748;7.102;2023-02-15T04:00:37;47.22;;;18.38;;
32445;SDS011;18899;50.748;7.102;2023-02-15T04:03:28;46.83;;;19.40;;
32445;SDS011;18899;50.748;7.102;2023-02-15T04:05:59;50.08;;;19.52;;
32445;SDS011;18899;50.748;7.102;2023-02-15T04:08:27;47.15;;;19.95;;
32445;SDS011;18899;50.748;7.102;2023-02-15T04:11:11;48.65;;;18.38;;
32445;SDS011;18899;50.748;7.102;2023-02-15T04:13:37;52.40;;;20.45;;
32445;SDS011;18899;50.748;7.102;2023-02-15T04:16:03;51.17;;;19.70;;
32445;SDS011;18899;50.748;7.102;2023-02-15T04:18:33;44.28;;;18.20;;
32445;SDS011;18899;50.748;7.102;2023-02-15T04:21:18;47.33;;;18.58;;
32445;SDS011;18899;50.748;7.102;2023-02-15T04:24:03;44.63;;;18.67;;
32445;SDS011;18899;50.748;7.102;2023-02-15T04:26:47;49.83;;;18.17;;
32445;SDS011;18899;50.748;7.102;2023-02-15T04:29:14;39.25;;;16.15;;
32445;SDS011;18899;50.748;7.102;2023-02-15T04:31:40;44.53;;;18.75;;
32445;SDS011;18899;50.748;7.102;2023-02-15T04:34:06;44.78;;;19.30;;
32445;SDS011;18899;50.748;7.102;2023-02-15T04:36:31;51.38;;;19.23;;
32445;SDS011;18899;50.748;7.102;2023-02-15T04:38:57;43.40;;;17.85;;
32445;SDS011;18899;50.748;7.102;2023-02-15T04:41:22;44.42;;;17.75;;
32445;SDS011;18899;50.748;7.102;2023-02-15T04:43:48;42.95;;;17.42;;
32445;SDS011;18899;50.748;7.102;2023-02-15T04:46:13;51.17;;;18.58;;
32445;SDS011;18899;50.748;7.102;2023-02-15T04:48:39;46.83;;;18.30;;
32445;SDS011;18899;50.748;7.102;2023-02-15T04:51:05;42.58;;;17.80;;
32445;SDS011;18899;50.748;7.102;2023-02-15T04:53:31;45.15;;;18.50;;
32445;SDS011;18899;50.748;7.102;2023-02-15T04:55:57;46.53;;;18.48;;
32445;SDS011;18899;50.748;7.102;2023-02-15T04:58:23;49.22;;;18.55;;
32445;SDS011;18899;50.748;7.102;2023-02-15T05:00:48;46.78;;;18.30;;
32445;SDS011;18899;50.748;7.102;2023-02-15T05:03:14;50.65;;;18.88;;
32445;SDS011;18899;50.748;7.102;2023-02-15T05:05:39;43.28;;;18.40;;
32445;SDS011;18899;50.748;7.102;2023-02-15T05:08:05;42.83;;;18.63;;
32445;SDS011;18899;50.748;7.102;2023-02-15T05:10:31;36.88;;;16.55;;
32445;SDS011;18899;50.748;7.102;2023-02-15T05:12:56;44.85;;;19.02;;
32445;SDS011;18899;50.748;7.102;2023-02-15T05:15:21;43.30;;;17.65;;
32445;SDS011;18899;50.748;7.102;2023-02-15T05:17:47;45.13;;;17.15;;
32445;SDS011;18899;50.748;7.102;2023-02-15T05:20:13;44.10;;;18.30;;
32445;SDS011;18899;50.748;7.102;2023-02-15T05:22:38;50.55;;;19.60;;
32445;SDS011;18899;50.748;7.102;2023-02-15T05:25:05;45.53;;;17.88;;
32445;SDS011;18899;50.748;7.102;2023-02-15T05:28:08;31.27;;;12.68;;
32445;SDS011;18899;50.748;7.102;2023-02-15T05:30:46;40.88;;;18.13;;
32445;SDS011;18899;50.748;7.102;2023-02-15T05:33:16;46.40;;;18.83;;
32445;SDS011;18899;50.748;7.102;2023-02-15T05:35:42;48.05;;;18.38;;
32445;SDS011;18899;50.748;7.102;2023-02-15T05:38:07;42.67;;;17.63;;
32445;SDS011;18899;50.748;7.102;2023-02-15T05:40:33;45.88;;;17.35;;
32445;SDS011;18899;50.748;7.102;2023-02-15T05:42:58;41.70;;;18.00;;
32445;SDS011;18899;50.748;7.102;2023-02-15T05:45:24;42.78;;;17.15;;
32445;SDS011;18899;50.748;7.102;2023-02-15T05:47:50;38.95;;;17.20;;
32445;SDS011;18899;50.748;7.102;2023-02-15T05:50:16;40.30;;;16.95;;
32445;SDS011;18899;50.748;7.102;2023-02-15T05:52:41;40.45;;;17.65;;
32445;SDS011;18899;50.748;7.102;2023-02-15T05:55:07;43.58;;;17.00;;
32445;SDS011;18899;50.748;7.102;2023-02-15T05:57:33;42.08;;;17.50;;
32445;SDS011;18899;50.748;7.102;2023-02-15T06:00:00;45.63;;;17.98;;
32445;SDS011;18899;50.748;7.102;2023-02-15T06:02:29;44.50;;;17.45;;
32445;SDS011;18899;50.748;7.102;2023-02-15T06:04:57;42.90;;;18.20;;
32445;SDS011;18899;50.748;7.102;2023-02-15T06:07:23;40.60;;;16.75;;
32445;SDS011;18899;50.748;7.102;2023-02-15T06:09:48;39.40;;;16.23;;
32445;SDS011;18899;50.748;7.102;2023-02-15T06:12:14;43.67;;;17.95;;
32445;SDS011;18899;50.748;7.102;2023-02-15T06:14:40;47.00;;;18.00;;
32445;SDS011;18899;50.748;7.102;2023-02-15T06:17:05;37.47;;;16.73;;
32445;SDS011;18899;50.748;7.102;2023-02-15T06:19:31;37.58;;;16.98;;
32445;SDS011;18899;50.748;7.102;2023-02-15T06:21:57;40.05;;;16.02;;
32445;SDS011;18899;50.748;7.102;2023-02-15T06:24:22;42.88;;;18.45;;
32445;SDS011;18899;50.748;7.102;2023-02-15T06:26:48;39.47;;;17.33;;
32445;SDS011;18899;50.748;7.102;2023-02-15T06:29:13;45.65;;;17.73;;
32445;SDS011;18899;50.748;7.102;2023-02-15T06:31:39;42.47;;;17.50;;
32445;SDS011;18899;50.748;7.102;2023-02-15T06:34:04;44.78;;;16.30;;
32445;SDS011;18899;50.748;7.102;2023-02-15T06:36:30;38.72;;;16.67;;
32445;SDS011;18899;50.748;7.102;2023-02-15T06:38:56;43.10;;;16.35;;
32445;SDS011;18899;50.748;7.102;2023-02-15T06:41:22;36.10;;;15.63;;
32445;SDS011;18899;50.748;7.102;2023-02-15T06:43:48;41.58;;;17.35;;
32445;SDS011;18899;50.748;7.102;2023-02-15T06:46:14;35.85;;;16.25;;
32445;SDS011;18899;50.748;7.102;2023-02-15T06:48:39;37.78;;;15.00;;
32445;SDS011;18899;50.748;7.102;2023-02-15T06:51:05;41.90;;;15.70;;
32445;SDS011;18899;50.748;7.102;2023-02-15T06:53:31;37.80;;;15.27;;
32445;SDS011;18899;50.748;7.102;2023-02-15T06:56:00;36.55;;;15.85;;
32445;SDS011;18899;50.748;7.102;2023-02-15T06:58:27;38.65;;;16.15;;
32445;SDS011;18899;50.748;7.102;2023-02-15T07:00:53;41.78;;;16.13;;
32445;SDS011;18899;50.748;7.102;2023-02-15T07:03:18;36.85;;;15.65;;
32445;SDS011;18899;50.748;7.102;2023-02-15T07:05:44;38.67;;;15.95;;
32445;SDS011;18899;50.748;7.102;2023-02-15T07:08:10;30.60;;;14.27;;
32445;SDS011;18899;50.748;7.102;2023-02-15T07:10:36;37.28;;;15.52;;
32445;SDS011;18899;50.748;7.102;2023-02-15T07:13:01;37.58;;;14.07;;
32445;SDS011;18899;50.748;7.102;2023-02-15T07:15:27;32.08;;;14.43;;
32445;SDS011;18899;50.748;7.102;2023-02-15T07:17:52;32.17;;;14.07;;
32445;SDS011;18899;50.748;7.102;2023-02-15T07:20:19;30.83;;;13.30;;
32445;SDS011;18899;50.748;7.102;2023-02-15T07:22:46;30.08;;;14.07;;
32445;SDS011;18899;50.748;7.102;2023-02-15T07:25:12;30.67;;;13.38;;
32445;SDS011;18899;50.748;7.102;2023-02-15T07:27:39;31.88;;;13.75;;
32445;SDS011;18899;50.748;7.102;2023-02-15T07:30:05;26.65;;;13.07;;
32445;SDS011;18899;50.748;7.102;2023-02-15T07:32:32;27.40;;;12.40;;
32445;SDS011;18899;50.748;7.102;2023-02-15T07:34:58;25.10;;;12.00;;
32445;SDS011;18899;50.748;7.102;2023-02-15T07:37:24;24.60;;;11.70;;
32445;SDS011;18899;50.748;7.102;2023-02-15T07:39:50;29.13;;;12.82;;
32445;SDS011;18899;50.748;7.102;2023-02-15T07:42:15;30.05;;;12.27;;
32445;SDS011;18899;50.748;7.102;2023-02-15T07:44:41;26.17;;;12.55;;
32445;SDS011;18899;50.748;7.102;2023-02-15T07:47:06;27.45;;;11.68;;
32445;SDS011;18899;50.748;7.102;2023-02-15T07:49:32;25.77;;;11.60;;
32445;SDS011;18899;50.748;7.102;2023-02-15T07:51:58;23.92;;;10.65;;
32445;SDS011;18899;50.748;7.102;2023-02-15T07:54:26;20.60;;;9.93;;
32445;SDS011;18899;50.748;7.102;2023-02-15T07:56:51;22.50;;;10.77;;
32445;SDS011;18899;50.748;7.102;2023-02-15T07:59:17;25.10;;;11.43;;
32445;SDS011;18899;50.748;7.102;2023-02-15T08:01:42;20.90;;;10.07;;
32445;SDS011;18899;50.748;7.102;2023-02-15T08:04:08;21.67;;;9.98;;
32445;SDS011;18899;50.748;7.102;2023-02-15T08:06:35;20.58;;;9.73;;
32445;SDS011;18899;50.748;7.102;2023-02-15T08:09:06;17.42;;;8.88;;
32445;SDS011;18899;50.748;7.102;2023-02-15T08:11:36;21.50;;;9.70;;
32445;SDS011;18899;50.748;7.102;2023-02-15T08:14:15;22.20;;;10.07;;
32445;SDS011;18899;50.748;7.102;2023-02-15T08:16:43;18.90;;;9.68;;
32445;SDS011;18899;50.748;7.102;2023-02-15T08:19:13;18.83;;;9.77;;
32445;SDS011;18899;50.748;7.102;2023-02-15T08:21:42;17.73;;;9.40;;
32445;SDS011;18899;50.748;7.102;2023-02-15T08:26:39;20.90;;;9.85;;
32445;SDS011;18899;50.748;7.102;2023-02-15T08:29:05;19.38;;;9.73;;
32445;SDS011;18899;50.748;7.102;2023-02-15T08:31:32;18.77;;;9.50;;
32445;SDS011;18899;50.748;7.102;2023-02-15T08:33:58;17.65;;;9.90;;
32445;SDS011;18899;50.748;7.102;2023-02-15T08:36:25;19.83;;;10.32;;
32445;SDS011;18899;50.748;7.102;2023-02-15T08:38:53;18.70;;;9.18;;
32445;SDS011;18899;50.748;7.102;2023-02-15T08:41:23;20.45;;;9.35;;
32445;SDS011;18899;50.748;7.102;2023-02-15T08:46:21;19.15;;;9.82;;
32445;SDS011;18899;50.748;7.102;2023-02-15T08:48:49;15.52;;;8.38;;
32445;SDS011;18899;50.748;7.102;2023-02-15T08:51:16;18.23;;;9.43;;
32445;SDS011;18899;50.748;7.102;2023-02-15T08:53:45;17.95;;;9.20;;
32445;SDS011;18899;50.748;7.102;2023-02-15T08:56:14;16.53;;;8.57;;
32445;SDS011;18899;50.748;7.102;2023-02-15T08:58:40;18.95;;;8.95;;
32445;SDS011;18899;50.748;7.102;2023-02-15T09:01:10;18.38;;;8.73;;
32445;SDS011;18899;50.748;7.102;2023-02-15T09:03:37;19.67;;;10.15;;
32445;SDS011;18899;50.748;7.102;2023-02-15T09:06:03;14.95;;;7.75;;
32445;SDS011;18899;50.748;7.102;2023-02-15T09:08:29;17.02;;;9.32;;
32445;SDS011;18899;50.748;7.102;2023-02-15T09:11:03;15.38;;;8.73;;
32445;SDS011;18899;50.748;7.102;2023-02-15T09:13:30;18.65;;;9.65;;
32445;SDS011;18899;50.748;7.102;2023-02-15T09:15:59;18.17;;;9.27;;
32445;SDS011;18899;50.748;7.102;2023-02-15T09:18:33;17.35;;;8.82;;
32445;SDS011;18899;50.748;7.102;2023-02-15T09:21:06;17.05;;;9.13;;
32445;SDS011;18899;50.748;7.102;2023-02-15T09:23:33;19.58;;;8.85;;
32445;SDS011;18899;50.748;7.102;2023-02-15T09:26:03;16.30;;;8.73;;
32445;SDS011;18899;50.748;7.102;2023-02-15T09:28:29;18.55;;;9.27;;
32445;SDS011;18899;50.748;7.102;2023-02-15T09:31:03;17.55;;;8.70;;
32445;SDS011;18899;50.748;7.102;2023-02-15T09:33:35;16.75;;;8.57;;
32445;SDS011;18899;50.748;7.102;2023-02-15T09:36:01;18.20;;;9.38;;
32445;SDS011;18899;50.748;7.102;2023-02-15T09:38:30;17.48;;;8.32;;
32445;SDS011;18899;50.748;7.102;2023-02-15T09:41:01;14.75;;;8.68;;
32445;SDS011;18899;50.748;7.102;2023-02-15T09:43:54;18.60;;;8.73;;
32445;SDS011;18899;50.748;7.102;2023-02-15T09:49:38;16.90;;;9.18;;
32445;SDS011;18899;50.748;7.102;2023-02-15T09:52:18;21.00;;;9.00;;
32445;SDS011;18899;50.748;7.102;2023-02-15T09:55:08;19.50;;;9.32;;
32445;SDS011;18899;50.748;7.102;2023-02-15T09:57:59;15.88;;;9.00;;
32445;SDS011;18899;50.748;7.102;2023-02-15T10:00:38;21.13;;;9.18;;
32445;SDS011;18899;50.748;7.102;2023-02-15T10:03:30;17.13;;;9.60;;
32445;SDS011;18899;50.748;7.102;2023-02-15T10:06:13;17.23;;;9.25;;
32445;SDS011;18899;50.748;7.102;2023-02-15T10:11:28;19.40;;;9.57;;
32445;SDS011;18899;50.748;7.102;2023-02-15T10:16:56;15.73;;;9.10;;
32445;SDS011;18899;50.748;7.102;2023-02-15T10:19:51;14.98;;;9.10;;
32445;SDS011;18899;50.748;7.102;2023-02-15T10:22:46;17.77;;;9.93;;
32445;SDS011;18899;50.748;7.102;2023-02-15T10:31:15;17.67;;;9.27;;
32445;SDS011;18899;50.748;7.102;2023-02-15T10:33:46;16.15;;;9.05;;
32445;SDS011;18899;50.748;7.102;2023-02-15T10:36:33;18.63;;;9.25;;
32445;SDS011;18899;50.748;7.102;2023-02-15T10:52:27;23.00;;;9.63;;
32445;SDS011;18899;50.748;7.102;2023-02-15T10:55:03;16.77;;;9.30;;
32445;SDS011;18899;50.748;7.102;2023-02-15T10:57:41;21.52;;;10.30;;
32445;SDS011;18899;50.748;7.102;2023-02-15T11:06:18;19.17;;;9.38;;
32445;SDS011;18899;50.748;7.102;2023-02-15T11:08:47;19.33;;;9.52;;
32445;SDS011;18899;50.748;7.102;2023-02-15T11:14:12;19.80;;;10.02;;
32445;SDS011;18899;50.748;7.102;2023-02-15T11:16:44;19.38;;;9.68;;
32445;SDS011;18899;50.748;7.102;2023-02-15T11:19:19;19.77;;;9.63;;
32445;SDS011;18899;50.748;7.102;2023-02-15T11:21:50;22.30;;;10.55;;
32445;SDS011;18899;50.748;7.102;2023-02-15T11:24:25;18.77;;;9.85;;
32445;SDS011;18899;50.748;7.102;2023-02-15T11:26:57;19.95;;;10.90;;
32445;SDS011;18899;50.748;7.102;2023-02-15T11:29:34;17.88;;;10.15;;
32445;SDS011;18899;50.748;7.102;2023-02-15T11:32:11;19.80;;;9.77;;
32445;SDS011;18899;50.748;7.102;2023-02-15T11:34:53;17.33;;;9.25;;
32445;SDS011;18899;50.748;7.102;2023-02-15T11:37:40;18.45;;;10.60;;
32445;SDS011;18899;50.748;7.102;2023-02-15T11:40:20;22.23;;;10.20;;
32445;SDS011;18899;50.748;7.102;2023-02-15T11:42:53;19.00;;;9.38;;
32445;SDS011;18899;50.748;7.102;2023-02-15T11:45:26;24.33;;;9.73;;
32445;SDS011;18899;50.748;7.102;2023-02-15T11:47:56;22.40;;;10.02;;
32445;SDS011;18899;50.748;7.102;2023-02-15T11:50:24;22.73;;;10.05;;
32445;SDS011;18899;50.748;7.102;2023-02-15T11:53:10;19.13;;;10.00;;
32445;SDS011;18899;50.748;7.102;2023-02-15T11:55:38;22.10;;;9.25;;
32445;SDS011;18899;50.748;7.102;2023-02-15T11:58:16;17.88;;;9.57;;
32445;SDS011;18899;50.748;7.102;2023-02-15T12:00:45;23.77;;;10.68;;
32445;SDS011;18899;50.748;7.102;2023-02-15T12:05:42;18.45;;;9.27;;
32445;SDS011;18899;50.748;7.102;2023-02-15T12:10:46;16.33;;;9.15;;
32445;SDS011;18899;50.748;7.102;2023-02-15T12:14:03;21.42;;;9.70;;
32445;SDS011;18899;50.748;7.102;2023-02-15T12:16:49;18.35;;;10.00;;
32445;SDS011;18899;50.748;7.102;2023-02-15T12:19:30;18.33;;;9.57;;
32445;SDS011;18899;50.748;7.102;2023-02-15T12:21:58;24.10;;;9.82;;
32445;SDS011;18899;50.748;7.102;2023-02-15T12:24:43;22.70;;;9.98;;
32445;SDS011;18899;50.748;7.102;2023-02-15T12:27:14;18.35;;;9.30;;
32445;SDS011;18899;50.748;7.102;2023-02-15T12:29:43;19.52;;;9.48;;
32445;SDS011;18899;50.748;7.102;2023-02-15T12:32:19;19.35;;;8.70;;
32445;SDS011;18899;50.748;7.102;2023-02-15T12:34:49;19.42;;;8.73;;
32445;SDS011;18899;50.748;7.102;2023-02-15T12:37:19;20.83;;;8.63;;
32445;SDS011;18899;50.748;7.102;2023-02-15T12:42:19;19.35;;;8.85;;
32445;SDS011;18899;50.748;7.102;2023-02-15T12:44:58;16.83;;;8.55;;
32445;SDS011;18899;50.748;7.102;2023-02-15T12:47:26;18.60;;;9.25;;
32445;SDS011;18899;50.748;7.102;2023-02-15T12:50:07;23.45;;;9.00;;
32445;SDS011;18899;50.748;7.102;2023-02-15T12:52:41;17.77;;;8.50;;
32445;SDS011;18899;50.748;7.102;2023-02-15T12:57:48;17.67;;;8.77;;
32445;SDS011;18899;50.748;7.102;2023-02-15T13:00:29;16.38;;;8.50;;
32445;SDS011;18899;50.748;7.102;2023-02-15T13:02:56;18.65;;;8.73;;
32445;SDS011;18899;50.748;7.102;2023-02-15T13:05:25;17.10;;;8.77;;
32445;SDS011;18899;50.748;7.102;2023-02-15T13:10:27;16.85;;;8.60;;
32445;SDS011;18899;50.748;7.102;2023-02-15T13:12:58;18.27;;;9.30;;
32445;SDS011;18899;50.748;7.102;2023-02-15T13:15:28;19.27;;;8.95;;
32445;SDS011;18899;50.748;7.102;2023-02-15T13:18:00;15.50;;;7.78;;
32445;SDS011;18899;50.748;7.102;2023-02-15T13:20:28;16.05;;;8.38;;
32445;SDS011;18899;50.748;7.102;2023-02-15T13:23:01;18.00;;;9.30;;
32445;SDS011;18899;50.748;7.102;2023-02-15T13:25:31;16.85;;;9.18;;
32445;SDS011;18899;50.748;7.102;2023-02-15T13:28:01;17.92;;;9.35;;
32445;SDS011;18899;50.748;7.102;2023-02-15T13:30:38;16.83;;;8.75;;
32445;SDS011;18899;50.748;7.102;2023-02-15T13:33:50;17.88;;;8.65;;
32445;SDS011;18899;50.748;7.102;2023-02-15T13:36:12;17.13;;;8.93;;
32445;SDS011;18899;50.748;7.102;2023-02-15T13:38:46;15.63;;;8.25;;
32445;SDS011;18899;50.748;7.102;2023-02-15T13:44:48;19.52;;;8.65;;
32445;SDS011;18899;50.748;7.102;2023-02-15T13:47:52;17.25;;;7.75;;
32445;SDS011;18899;50.748;7.102;2023-02-15T13:53:40;17.80;;;9.25;;
32445;SDS011;18899;50.748;7.102;2023-02-15T14:01:44;19.40;;;9.18;;
32445;SDS011;18899;50.748;7.102;2023-02-15T14:09:39;15.98;;;8.02;;
32445;SDS011;18899;50.748;7.102;2023-02-15T14:17:45;16.67;;;8.40;;
32445;SDS011;18899;50.748;7.102;2023-02-15T14:20:20;18.67;;;9.05;;
32445;SDS011;18899;50.748;7.102;2023-02-15T14:23:07;21.10;;;8.70;;
32445;SDS011;18899;50.748;7.102;2023-02-15T14:25:55;16.23;;;8.73;;
32445;SDS011;18899;50.748;7.102;2023-02-15T14:28:31;20.42;;;8.57;;
32445;SDS011;18899;50.748;7.102;2023-02-15T14:31:06;19.33;;;7.07;;
32445;SDS011;18899;50.748;7.102;2023-02-15T14:33:37;22.48;;;8.77;;
32445;SDS011;18899;50.748;7.102;2023-02-15T14:36:08;21.92;;;9.15;;
32445;SDS011;18899;50.748;7.102;2023-02-15T14:41:45;17.50;;;8.77;;
32445;SDS011;18899;50.748;7.102;2023-02-15T14:44:33;19.35;;;9.73;;
32445;SDS011;18899;50.748;7.102;2023-02-15T14:47:15;14.15;;;8.13;;
32445;SDS011;18899;50.748;7.102;2023-02-15T14:49:49;18.00;;;8.65;;
32445;SDS011;18899;50.748;7.102;2023-02-15T14:52:15;19.13;;;8.95;;
32445;SDS011;18899;50.748;7.102;2023-02-15T14:59:45;18.08;;;8.80;;
32445;SDS011;18899;50.748;7.102;2023-02-15T15:02:18;17.80;;;8.80;;
32445;SDS011;18899;50.748;7.102;2023-02-15T15:05:02;19.77;;;9.23;;
32445;SDS011;18899;50.748;7.102;2023-02-15T15:07:37;16.65;;;8.82;;
32445;SDS011;18899;50.748;7.102;2023-02-15T15:12:46;18.48;;;9.07;;
32445;SDS011;18899;50.748;7.102;2023-02-15T15:15:14;19.55;;;8.98;;
32445;SDS011;18899;50.748;7.102;2023-02-15T15:18:08;18.00;;;8.48;;
32445;SDS011;18899;50.748;7.102;2023-02-15T15:25:41;24.15;;;9.45;;
32445;SDS011;18899;50.748;7.102;2023-02-15T15:28:56;18.70;;;9.63;;
32445;SDS011;18899;50.748;7.102;2023-02-15T15:31:02;20.63;;;9.40;;
32445;SDS011;18899;50.748;7.102;2023-02-15T15:42:28;21.60;;;9.20;;
32445;SDS011;18899;50.748;7.102;2023-02-15T15:50:56;17.42;;;8.85;;
32445;SDS011;18899;50.748;7.102;2023-02-15T15:53:25;16.27;;;8.63;;
32445;SDS011;18899;50.748;7.102;2023-02-15T15:55:58;19.02;;;8.88;;
32445;SDS011;18899;50.748;7.102;2023-02-15T15:58:28;25.58;;;10.07;;
32445;SDS011;18899;50.748;7.102;2023-02-15T16:01:14;19.83;;;9.20;;
32445;SDS011;18899;50.748;7.102;2023-02-15T16:03:51;19.10;;;8.35;;
32445;SDS011;18899;50.748;7.102;2023-02-15T16:06:29;21.55;;;10.25;;
32445;SDS011;18899;50.748;7.102;2023-02-15T16:09:10;17.52;;;9.02;;
32445;SDS011;18899;50.748;7.102;2023-02-15T16:11:35;17.30;;;9.20;;
32445;SDS011;18899;50.748;7.102;2023-02-15T16:14:08;18.20;;;9.05;;
32445;SDS011;18899;50.748;7.102;2023-02-15T16:16:38;20.42;;;9.57;;
32445;SDS011;18899;50.748;7.102;2023-02-15T16:19:04;16.15;;;8.57;;
32445;SDS011;18899;50.748;7.102;2023-02-15T16:21:31;23.00;;;9.30;;
32445;SDS011;18899;50.748;7.102;2023-02-15T16:29:32;25.67;;;10.02;;
32445;SDS011;18899;50.748;7.102;2023-02-15T16:32:03;16.00;;;8.65;;
32445;SDS011;18899;50.748;7.102;2023-02-15T16:34:30;21.83;;;9.30;;
32445;SDS011;18899;50.748;7.102;2023-02-15T16:37:15;18.13;;;8.38;;
32445;SDS011;18899;50.748;7.102;2023-02-15T16:39:42;20.90;;;8.25;;
32445;SDS011;18899;50.748;7.102;2023-02-15T16:42:10;19.90;;;8.85;;
32445;SDS011;18899;50.748;7.102;2023-02-15T16:44:36;17.30;;;8.05;;
32445;SDS011;18899;50.748;7.102;2023-02-15T16:47:02;17.80;;;9.18;;
32445;SDS011;18899;50.748;7.102;2023-02-15T16:49:28;23.80;;;9.30;;
32445;SDS011;18899;50.748;7.102;2023-02-15T16:51:59;18.35;;;9.05;;
32445;SDS011;18899;50.748;7.102;2023-02-15T16:54:27;25.48;;;8.75;;
32445;SDS011;18899;50.748;7.102;2023-02-15T16:56:54;16.90;;;7.90;;
32445;SDS011;18899;50.748;7.102;2023-02-15T16:59:28;19.20;;;9.18;;
32445;SDS011;18899;50.748;7.102;2023-02-15T17:01:58;14.75;;;7.72;;
32445;SDS011;18899;50.748;7.102;2023-02-15T17:04:27;17.02;;;8.32;;